createdAt,value
2022-12-29T00:02:18.468Z,77.75
2022-12-29T00:04:45.439Z,77.23
2022-12-29T00:07:12.286Z,76.37
2022-12-29T00:09:39.277Z,76.30
2022-12-29T00:12:06.162Z,76.36
2022-12-29T00:14:51.408Z,76.06
2022-12-29T00:17:18.223Z,76.82
2022-12-29T00:20:03.464Z,76.89
2022-12-29T00:22:48.796Z,76.72
2022-12-29T00:25:34.033Z,75.89
2022-12-29T00:28:19.521Z,74.35
2022-12-29T00:31:04.976Z,76.47
2022-12-29T00:33:52.912Z,77.34
2022-12-29T00:36:22.644Z,76.04
2022-12-29T00:39:19.550Z,76.10
2022-12-29T00:42:05.394Z,75.82
2022-12-29T00:44:32.087Z,76.10
2022-12-29T00:47:03.403Z,77.04
2022-12-29T00:49:33.796Z,76.89
2022-12-29T00:52:05.312Z,75.60
2022-12-29T00:54:37.160Z,77.19
2022-12-29T00:57:04.893Z,75.75
2022-12-29T00:59:31.958Z,77.39
2022-12-29T01:01:59.739Z,77.28
2022-12-29T01:04:28.620Z,76.34
2022-12-29T01:06:55.260Z,76.42
2022-12-29T01:09:40.696Z,76.91
2022-12-29T01:12:09.413Z,77.51
2022-12-29T01:14:36.684Z,77.50
2022-12-29T01:17:03.601Z,76.81
2022-12-29T01:19:30.274Z,76.69
2022-12-29T01:21:56.997Z,76.16
2022-12-29T01:24:23.761Z,75.61
2022-12-29T01:26:50.607Z,75.83
2022-12-29T01:29:17.533Z,75.76
2022-12-29T01:31:46.055Z,76.21
2022-12-29T01:34:12.849Z,76.98
2022-12-29T01:36:39.649Z,77.07
2022-12-29T01:39:06.376Z,77.51
2022-12-29T01:41:33.408Z,77.39
2022-12-29T01:44:02.837Z,78.20
2022-12-29T01:46:34.576Z,78.61
2022-12-29T01:49:04.395Z,78.45
2022-12-29T01:51:33.119Z,79.33
2022-12-29T01:54:03.766Z,79.31
2022-12-29T01:56:30.450Z,78.13
2022-12-29T01:59:02.793Z,77.47
2022-12-29T02:01:29.714Z,77.26
2022-12-29T02:03:56.427Z,77.68
2022-12-29T02:06:32.298Z,76.60
2022-12-29T02:08:59.149Z,76.50
2022-12-29T02:11:27.695Z,76.93
2022-12-29T02:13:54.367Z,75.32
2022-12-29T02:16:35.727Z,74.65
2022-12-29T02:19:24.214Z,74.03
2022-12-29T02:22:43.848Z,74.68
2022-12-29T02:25:28.754Z,73.65
2022-12-29T02:28:18.743Z,73.41
2022-12-29T02:30:57.566Z,74.14
2022-12-29T02:33:42.875Z,73.15
2022-12-29T02:36:21.579Z,71.52
2022-12-29T02:39:03.394Z,71.62
2022-12-29T02:41:59.779Z,71.00
2022-12-29T02:44:32.431Z,70.47
2022-12-29T02:47:24.925Z,70.68
2022-12-29T02:49:59.085Z,70.10
2022-12-29T02:52:37.069Z,70.67
2022-12-29T02:55:03.907Z,70.42
2022-12-29T02:57:35.010Z,68.10
2022-12-29T03:00:09.264Z,68.94
2022-12-29T03:03:08.011Z,68.10
2022-12-29T03:05:47.029Z,68.28
2022-12-29T03:08:50.508Z,68.95
2022-12-29T03:11:36.443Z,68.01
2022-12-29T03:14:22.293Z,68.61
2022-12-29T03:16:53.700Z,67.80
2022-12-29T03:19:30.011Z,68.01
2022-12-29T03:22:17.025Z,68.20
2022-12-29T03:24:52.049Z,68.52
2022-12-29T03:27:22.412Z,68.63
2022-12-29T03:29:56.886Z,67.05
2022-12-29T03:32:27.634Z,67.48
2022-12-29T03:34:54.939Z,68.59
2022-12-29T03:37:25.916Z,67.74
2022-12-29T03:39:53.219Z,67.15
2022-12-29T03:42:25.112Z,68.06
2022-12-29T03:44:54.993Z,68.87
2022-12-29T03:47:22.029Z,68.21
2022-12-29T03:49:49.079Z,67.75
2022-12-29T03:52:16.568Z,66.64
2022-12-29T03:54:45.294Z,67.30
2022-12-29T03:57:13.051Z,67.74
2022-12-29T03:59:53.747Z,67.97
2022-12-29T04:02:20.579Z,67.41
2022-12-29T04:04:47.551Z,67.70
2022-12-29T04:07:14.235Z,67.13
2022-12-29T04:09:42.331Z,67.51
2022-12-29T04:12:12.213Z,67.10
2022-12-29T04:14:38.855Z,66.34
2022-12-29T04:17:05.488Z,67.42
2022-12-29T04:19:33.349Z,67.82
2022-12-29T04:22:01.423Z,66.90
2022-12-29T04:24:28.526Z,66.85
2022-12-29T04:26:55.425Z,66.91
2022-12-29T04:29:41.886Z,66.96
2022-12-29T04:32:18.443Z,66.67
2022-12-29T04:34:49.284Z,65.91
2022-12-29T04:37:16.248Z,67.28
2022-12-29T04:39:42.876Z,66.38
2022-12-29T04:42:09.736Z,66.51
2022-12-29T04:44:39.899Z,67.30
2022-12-29T04:47:15.040Z,66.90
2022-12-29T04:49:55.685Z,67.58
2022-12-29T04:52:42.630Z,67.90
2022-12-29T04:55:11.192Z,67.97
2022-12-29T04:57:38.029Z,67.97
2022-12-29T05:00:05.622Z,68.05
2022-12-29T05:02:32.462Z,68.02
2022-12-29T05:04:59.286Z,67.62
2022-12-29T05:07:26.909Z,66.93
2022-12-29T05:09:54.762Z,68.61
2022-12-29T05:12:21.464Z,67.82
2022-12-29T05:14:58.834Z,67.64
2022-12-29T05:17:25.621Z,68.25
2022-12-29T05:19:52.959Z,67.05
2022-12-29T05:22:20.086Z,68.02
2022-12-29T05:24:47.191Z,68.19
2022-12-29T05:27:14.525Z,67.88
2022-12-29T05:30:06.750Z,68.73
2022-12-29T05:32:34.522Z,68.60
2022-12-29T05:35:01.226Z,68.17
2022-12-29T05:37:28.714Z,68.40
2022-12-29T05:39:55.452Z,67.69
2022-12-29T05:42:22.194Z,67.20
2022-12-29T05:44:54.991Z,67.99
2022-12-29T05:47:32.614Z,68.09
2022-12-29T05:50:10.777Z,67.46
2022-12-29T05:52:55.735Z,67.84
2022-12-29T05:55:22.906Z,67.72
2022-12-29T05:57:52.559Z,67.74
2022-12-29T06:00:19.350Z,68.32
2022-12-29T06:02:47.298Z,67.95
2022-12-29T06:05:15.810Z,68.12
2022-12-29T06:07:42.505Z,68.00
2022-12-29T06:10:09.312Z,67.55
2022-12-29T06:12:56.234Z,67.02
2022-12-29T06:15:23.176Z,67.56
2022-12-29T06:17:50.887Z,67.53
2022-12-29T06:20:18.245Z,67.55
2022-12-29T06:22:44.943Z,66.88
2022-12-29T06:25:11.730Z,67.83
2022-12-29T06:27:39.497Z,67.63
2022-12-29T06:30:06.648Z,67.97
2022-12-29T06:32:33.307Z,67.09
2022-12-29T06:35:07.067Z,67.76
2022-12-29T06:37:37.653Z,67.69
2022-12-29T06:40:04.670Z,67.59
2022-12-29T06:42:43.413Z,67.60
2022-12-29T06:45:30.373Z,67.47
2022-12-29T06:47:57.254Z,67.55
2022-12-29T06:50:23.898Z,66.90
2022-12-29T06:52:50.540Z,67.72
2022-12-29T06:55:17.506Z,67.91
2022-12-29T06:57:44.129Z,68.09
2022-12-29T07:00:11.163Z,68.22
2022-12-29T07:02:37.861Z,68.13
2022-12-29T07:05:04.727Z,67.65
2022-12-29T07:07:31.374Z,67.80
2022-12-29T07:09:58.019Z,67.93
2022-12-29T07:12:24.646Z,67.92
2022-12-29T07:14:51.330Z,68.83
2022-12-29T07:17:17.947Z,69.04
2022-12-29T07:19:45.559Z,68.65
2022-12-29T07:22:12.309Z,68.59
2022-12-29T07:24:38.928Z,68.70
2022-12-29T07:27:05.694Z,68.97
2022-12-29T07:29:35.583Z,69.13
2022-12-29T07:32:02.318Z,68.70
2022-12-29T07:34:29.043Z,67.74
2022-12-29T07:36:55.677Z,68.48
2022-12-29T07:39:22.297Z,68.78
2022-12-29T07:41:48.915Z,69.66
2022-12-29T07:44:20.223Z,69.82
2022-12-29T07:47:00.393Z,68.90
2022-12-29T07:49:27.410Z,69.48
2022-12-29T07:51:54.077Z,69.61
2022-12-29T07:54:20.963Z,70.28
2022-12-29T07:56:47.632Z,70.22
2022-12-29T07:59:14.485Z,69.22
2022-12-29T08:01:41.356Z,69.34
2022-12-29T08:04:08.288Z,68.52
2022-12-29T08:06:35.055Z,68.85
2022-12-29T08:09:09.876Z,68.00
2022-12-29T08:11:41.407Z,68.83
2022-12-29T08:14:08.366Z,69.12
2022-12-29T08:16:35.453Z,68.79
2022-12-29T08:19:02.410Z,69.36
2022-12-29T08:21:29.609Z,69.49
2022-12-29T08:23:56.729Z,68.71
2022-12-29T08:26:23.366Z,68.71
2022-12-29T08:28:53.602Z,68.93
2022-12-29T08:31:20.332Z,68.18
2022-12-29T08:33:47.034Z,69.59
2022-12-29T08:36:13.617Z,69.15
2022-12-29T08:38:43.239Z,68.01
2022-12-29T08:41:09.910Z,68.62
2022-12-29T08:43:36.557Z,68.97
2022-12-29T08:46:03.320Z,69.21
2022-12-29T08:48:30.119Z,68.58
2022-12-29T08:50:56.794Z,68.42
2022-12-29T08:53:23.501Z,68.43
2022-12-29T08:56:03.705Z,68.91
2022-12-29T08:58:33.332Z,68.17
2022-12-29T09:01:00.473Z,69.13
2022-12-29T09:06:15.829Z,68.39
2022-12-29T09:08:42.659Z,68.18
2022-12-29T09:11:21.467Z,68.56
2022-12-29T09:13:48.507Z,66.67
2022-12-29T09:16:15.627Z,67.73
2022-12-29T09:18:43.088Z,67.72
2022-12-29T09:21:11.043Z,67.70
2022-12-29T09:23:38.175Z,67.34
2022-12-29T09:26:05.105Z,67.30
2022-12-29T09:28:32.194Z,66.85
2022-12-29T09:31:00.003Z,66.21
2022-12-29T09:33:27.021Z,65.53
2022-12-29T09:35:55.853Z,64.71
2022-12-29T09:38:22.840Z,64.79
2022-12-29T09:40:56.943Z,64.81
2022-12-29T09:43:42.354Z,65.10
2022-12-29T09:46:18.644Z,64.95
2022-12-29T09:48:49.185Z,64.32
2022-12-29T09:51:18.471Z,64.68
2022-12-29T09:54:05.046Z,64.56
2022-12-29T09:56:32.089Z,63.84
2022-12-29T09:59:21.567Z,63.58
2022-12-29T10:02:27.557Z,63.36
2022-12-29T10:04:54.290Z,63.72
2022-12-29T10:07:42.955Z,63.51
2022-12-29T10:10:34.650Z,63.67
2022-12-29T10:13:14.595Z,62.45
2022-12-29T10:15:56.410Z,62.83
2022-12-29T10:19:02.562Z,62.75
2022-12-29T10:21:50.844Z,62.03
2022-12-29T10:24:22.717Z,62.31
2022-12-29T10:26:52.330Z,61.66
2022-12-29T10:29:26.068Z,62.04
2022-12-29T10:32:00.286Z,61.03
2022-12-29T10:34:30.710Z,61.13
2022-12-29T10:37:15.507Z,60.83
2022-12-29T10:39:47.333Z,60.31
2022-12-29T10:42:19.330Z,60.72
2022-12-29T10:44:46.079Z,61.56
2022-12-29T10:47:18.897Z,61.02
2022-12-29T10:49:49.754Z,61.97
2022-12-29T10:52:18.796Z,62.55
2022-12-29T10:55:04.769Z,62.10
2022-12-29T10:57:41.085Z,62.38
2022-12-29T11:00:16.328Z,61.87
2022-12-29T11:03:17.026Z,61.80
2022-12-29T11:05:53.352Z,61.42
2022-12-29T11:08:26.478Z,62.15
2022-12-29T11:11:03.130Z,61.86
2022-12-29T11:13:38.308Z,63.81
2022-12-29T11:16:05.665Z,64.86
2022-12-29T11:18:37.127Z,65.38
2022-12-29T11:21:07.724Z,64.65
2022-12-29T11:23:38.770Z,65.04
2022-12-29T11:26:11.282Z,65.21
2022-12-29T11:28:39.470Z,66.69
2022-12-29T11:31:08.128Z,68.37
2022-12-29T11:33:40.000Z,68.50
2022-12-29T11:36:16.646Z,68.82
2022-12-29T11:38:47.230Z,68.95
2022-12-29T11:41:21.140Z,69.22
2022-12-29T11:43:48.895Z,69.79
2022-12-29T11:46:22.290Z,69.90
2022-12-29T11:48:49.775Z,71.74
2022-12-29T11:51:39.207Z,72.98
2022-12-29T11:54:06.576Z,73.91
2022-12-29T11:56:44.063Z,74.68
2022-12-29T11:59:53.220Z,76.49
2022-12-29T12:02:43.719Z,78.86
2022-12-29T12:05:19.777Z,79.21
2022-12-29T12:07:49.061Z,80.87
2022-12-29T12:10:23.734Z,81.82
2022-12-29T12:13:00.238Z,81.04
2022-12-29T12:15:33.034Z,80.28
2022-12-29T12:18:37.386Z,81.25
2022-12-29T12:21:13.986Z,80.17
2022-12-29T12:24:16.408Z,80.65
2022-12-29T12:26:59.899Z,80.67
2022-12-29T12:29:38.354Z,81.38
2022-12-29T12:32:19.861Z,81.22
2022-12-29T12:34:47.545Z,80.37
2022-12-29T12:37:14.179Z,80.64
2022-12-29T12:40:06.463Z,81.52
2022-12-29T12:42:50.237Z,80.63
2022-12-29T12:45:33.024Z,80.74
2022-12-29T12:48:25.496Z,79.85
2022-12-29T12:51:02.219Z,79.24
2022-12-29T12:53:53.702Z,79.11
2022-12-29T12:56:40.330Z,79.35
2022-12-29T12:59:16.221Z,79.18
2022-12-29T13:01:58.548Z,79.46
2022-12-29T13:04:38.047Z,79.68
2022-12-29T13:07:29.770Z,79.36
2022-12-29T13:10:34.100Z,79.62
2022-12-29T13:13:37.117Z,80.37
2022-12-29T13:16:14.916Z,79.57
2022-12-29T13:18:49.765Z,79.93
2022-12-29T13:21:28.902Z,79.67
2022-12-29T13:24:26.336Z,78.80
2022-12-29T13:26:59.569Z,79.92
2022-12-29T13:29:54.488Z,79.82
2022-12-29T13:32:30.191Z,79.04
2022-12-29T13:35:17.879Z,79.34
2022-12-29T13:37:52.423Z,79.81
2022-12-29T13:40:24.085Z,79.32
2022-12-29T13:42:52.049Z,78.68
2022-12-29T13:45:22.372Z,78.92
2022-12-29T13:47:55.746Z,79.27
2022-12-29T13:50:25.643Z,78.58
2022-12-29T13:53:03.782Z,79.17
2022-12-29T13:55:38.780Z,79.59
2022-12-29T13:58:43.015Z,79.71
2022-12-29T14:01:15.579Z,79.67
2022-12-29T14:03:44.746Z,79.42
2022-12-29T14:06:26.706Z,79.64
2022-12-29T14:08:56.272Z,79.84
2022-12-29T14:11:28.238Z,79.84
2022-12-29T14:13:55.401Z,79.55
2022-12-29T14:16:28.407Z,79.67
2022-12-29T14:18:58.287Z,80.04
2022-12-29T14:21:30.805Z,79.97
2022-12-29T14:24:27.280Z,80.01
2022-12-29T14:26:53.883Z,79.63
2022-12-29T14:29:26.700Z,80.16
2022-12-29T14:31:54.074Z,79.64
2022-12-29T14:34:21.601Z,80.05
2022-12-29T14:37:01.449Z,79.73
2022-12-29T14:39:39.127Z,79.43
2022-12-29T14:42:11.787Z,79.97
2022-12-29T14:44:50.686Z,78.75
2022-12-29T14:47:23.978Z,78.46
2022-12-29T14:49:50.714Z,78.37
2022-12-29T14:52:24.187Z,78.18
2022-12-29T14:54:54.964Z,77.74
2022-12-29T14:57:26.286Z,78.03
2022-12-29T15:00:09.152Z,78.18
2022-12-29T15:02:41.732Z,78.07
2022-12-29T15:05:26.321Z,78.21
2022-12-29T15:07:59.832Z,77.64
2022-12-29T15:10:27.487Z,79.07
2022-12-29T15:13:05.668Z,81.28
2022-12-29T15:15:37.695Z,81.19
2022-12-29T15:18:40.395Z,82.60
2022-12-29T15:21:07.731Z,82.46
2022-12-29T15:23:36.105Z,82.00
2022-12-29T15:26:08.058Z,82.05
2022-12-29T15:28:46.572Z,81.63
2022-12-29T15:31:28.029Z,81.09
2022-12-29T15:34:04.420Z,81.75
2022-12-29T15:36:39.109Z,81.77
2022-12-29T15:39:31.808Z,81.33
2022-12-29T15:42:33.622Z,81.72
2022-12-29T15:45:10.208Z,81.21
2022-12-29T15:47:39.803Z,81.11
2022-12-29T15:50:21.981Z,81.15
2022-12-29T15:52:48.904Z,81.16
2022-12-29T15:55:28.627Z,81.28
2022-12-29T15:58:00.196Z,80.76
2022-12-29T16:00:32.953Z,80.84
2022-12-29T16:03:02.432Z,80.73
2022-12-29T16:05:34.726Z,80.65
2022-12-29T16:08:02.560Z,80.73
2022-12-29T16:10:37.198Z,80.04
2022-12-29T16:13:07.590Z,78.58
2022-12-29T16:15:34.333Z,79.56
2022-12-29T16:18:07.238Z,77.55
2022-12-29T16:20:41.301Z,77.58
2022-12-29T16:23:19.352Z,76.26
2022-12-29T16:25:46.182Z,74.99
2022-12-29T16:28:23.905Z,73.94
2022-12-29T16:31:05.348Z,74.32
2022-12-29T16:33:41.278Z,74.37
2022-12-29T16:36:28.171Z,73.43
2022-12-29T16:39:24.566Z,72.75
2022-12-29T16:41:51.557Z,71.88
2022-12-29T16:44:32.002Z,70.84
2022-12-29T16:47:10.939Z,71.63
2022-12-29T16:49:48.717Z,71.08
2022-12-29T16:52:20.683Z,70.41
2022-12-29T16:54:54.264Z,70.49
2022-12-29T16:57:29.946Z,69.95
2022-12-29T17:00:00.815Z,71.05
2022-12-29T17:02:30.246Z,68.77
2022-12-29T17:04:56.980Z,69.59
2022-12-29T17:07:25.605Z,68.72
2022-12-29T17:09:54.353Z,69.74
2022-12-29T17:12:27.323Z,70.21
2022-12-29T17:14:57.786Z,66.93
2022-12-29T17:17:35.699Z,67.71
2022-12-29T17:20:17.570Z,65.79
2022-12-29T17:22:44.848Z,66.58
2022-12-29T17:25:19.603Z,65.49
2022-12-29T17:27:49.273Z,66.13
2022-12-29T17:30:18.033Z,65.70
2022-12-29T17:32:58.733Z,64.58
2022-12-29T17:35:25.786Z,64.24
2022-12-29T17:37:53.206Z,64.70
2022-12-29T17:40:29.585Z,64.47
2022-12-29T17:42:57.515Z,65.80
2022-12-29T17:45:29.075Z,65.01
2022-12-29T17:47:56.413Z,64.53
2022-12-29T17:50:26.751Z,65.55
2022-12-29T17:53:00.732Z,66.04
2022-12-29T17:55:32.992Z,67.57
2022-12-29T17:58:16.025Z,68.71
2022-12-29T18:00:43.875Z,68.11
2022-12-29T18:03:24.403Z,67.80
2022-12-29T18:05:51.176Z,67.92
2022-12-29T18:08:17.869Z,67.76
2022-12-29T18:10:44.690Z,68.13
2022-12-29T18:13:29.358Z,66.46
2022-12-29T18:16:05.738Z,67.53
2022-12-29T18:18:32.503Z,67.73
2022-12-29T18:21:00.306Z,67.25
2022-12-29T18:23:32.603Z,68.71
2022-12-29T18:26:00.872Z,69.48
2022-12-29T18:28:28.504Z,68.81
2022-12-29T18:30:57.407Z,67.70
2022-12-29T18:33:26.656Z,68.74
2022-12-29T18:36:02.336Z,67.82
2022-12-29T18:38:29.979Z,67.16
2022-12-29T18:40:57.222Z,67.04
2022-12-29T18:43:23.926Z,67.68
2022-12-29T18:45:50.888Z,67.19
2022-12-29T18:48:18.668Z,67.86
2022-12-29T18:50:46.695Z,66.89
2022-12-29T18:53:22.321Z,66.15
2022-12-29T18:55:51.188Z,67.02
2022-12-29T18:58:18.145Z,68.09
2022-12-29T19:00:45.052Z,66.20
2022-12-29T19:03:17.154Z,67.01
2022-12-29T19:05:45.384Z,66.96
2022-12-29T19:08:12.369Z,66.98
2022-12-29T19:10:39.995Z,67.70
2022-12-29T19:13:06.759Z,68.22
2022-12-29T19:15:40.521Z,68.11
2022-12-29T19:20:56.868Z,68.78
2022-12-29T19:23:25.681Z,69.38
2022-12-29T19:25:54.345Z,68.74
2022-12-29T19:28:26.391Z,69.21
2022-12-29T19:30:57.426Z,69.39
2022-12-29T19:33:24.441Z,69.62
2022-12-29T19:35:51.758Z,69.77
2022-12-29T19:38:19.489Z,68.85
2022-12-29T19:40:48.920Z,70.49
2022-12-29T19:43:15.572Z,70.31
2022-12-29T19:45:43.721Z,70.69
2022-12-29T19:48:19.528Z,70.03
2022-12-29T19:50:46.550Z,69.84
2022-12-29T19:53:13.596Z,70.25
2022-12-29T19:55:44.653Z,70.46
2022-12-29T19:58:12.247Z,70.09
2022-12-29T20:00:40.390Z,70.86
2022-12-29T20:03:07.146Z,70.13
2022-12-29T20:05:34.027Z,69.97
2022-12-29T20:08:00.668Z,70.63
2022-12-29T20:10:27.382Z,70.46
2022-12-29T20:12:54.110Z,69.88
2022-12-29T20:15:20.788Z,69.40
2022-12-29T20:18:16.286Z,70.18
2022-12-29T20:20:34.879Z,69.91
2022-12-29T20:23:01.626Z,69.46
2022-12-29T20:25:46.754Z,69.18
2022-12-29T20:28:15.690Z,69.57
2022-12-29T20:30:42.560Z,70.26
2022-12-29T20:33:09.338Z,69.05
2022-12-29T20:35:36.601Z,69.36
2022-12-29T20:38:03.975Z,68.57
2022-12-29T20:40:30.758Z,68.74
2022-12-29T20:42:57.429Z,67.84
2022-12-29T20:45:24.490Z,67.76
2022-12-29T20:47:51.232Z,67.65
2022-12-29T20:50:18.015Z,67.01
2022-12-29T20:52:44.852Z,68.28
2022-12-29T20:55:11.650Z,67.37
2022-12-29T20:58:22.131Z,67.53
2022-12-29T21:00:25.871Z,68.05
2022-12-29T21:02:53.186Z,67.62
2022-12-29T21:05:24.348Z,68.73
2022-12-29T21:07:52.738Z,68.17
2022-12-29T21:10:19.598Z,67.95
2022-12-29T21:12:46.482Z,68.27
2022-12-29T21:15:15.129Z,67.92
2022-12-29T21:17:43.709Z,67.98
2022-12-29T21:20:20.045Z,67.46
2022-12-29T21:22:50.745Z,66.35
2022-12-29T21:25:17.599Z,67.50
2022-12-29T21:27:44.399Z,66.23
2022-12-29T21:30:12.114Z,66.45
2022-12-29T21:32:39.591Z,67.66
2022-12-29T21:35:07.450Z,66.76
2022-12-29T21:37:34.492Z,65.04
2022-12-29T21:40:01.160Z,66.11
2022-12-29T21:42:27.963Z,66.03
2022-12-29T21:45:19.841Z,66.32
2022-12-29T21:48:06.114Z,65.66
2022-12-29T21:50:32.842Z,65.07
2022-12-29T21:52:59.560Z,65.17
2022-12-29T21:55:26.212Z,66.19
2022-12-29T21:58:22.082Z,65.12
2022-12-29T22:01:09.076Z,66.32
2022-12-29T22:03:57.209Z,65.53
2022-12-29T22:06:42.389Z,64.94
2022-12-29T22:09:30.364Z,65.13
2022-12-29T22:12:15.665Z,64.80
2022-12-29T22:14:42.283Z,64.47
2022-12-29T22:17:14.007Z,64.21
2022-12-29T22:19:41.022Z,64.09
2022-12-29T22:22:07.714Z,64.63
2022-12-29T22:24:34.340Z,64.84
2022-12-29T22:27:01.064Z,65.40
2022-12-29T22:29:27.885Z,64.64
2022-12-29T22:31:54.590Z,65.20
2022-12-29T22:34:21.230Z,64.70
2022-12-29T22:36:47.991Z,63.46
2022-12-29T22:39:14.763Z,63.65
2022-12-29T22:41:41.395Z,64.15
2022-12-29T22:44:08.149Z,65.09
2022-12-29T22:46:34.979Z,65.06
2022-12-29T22:49:01.697Z,64.21
2022-12-29T22:51:28.371Z,64.14
2022-12-29T22:53:55.081Z,64.34
2022-12-29T22:56:22.043Z,64.35
2022-12-29T22:58:51.710Z,64.13
2022-12-29T23:01:22.542Z,64.10
2022-12-29T23:03:52.863Z,64.57
2022-12-29T23:06:19.559Z,64.83
2022-12-29T23:08:47.500Z,65.19
2022-12-29T23:11:14.615Z,64.14
2022-12-29T23:13:41.825Z,63.93
2022-12-29T23:16:09.632Z,64.46
2022-12-29T23:18:37.144Z,63.35
2022-12-29T23:21:04.236Z,63.35
2022-12-29T23:23:50.101Z,62.86
2022-12-29T23:26:17.876Z,62.61
2022-12-29T23:28:44.670Z,62.62
2022-12-29T23:31:11.388Z,62.29
2022-12-29T23:33:38.228Z,62.85
2022-12-29T23:36:05.471Z,62.36
2022-12-29T23:38:32.112Z,62.04
2022-12-29T23:40:58.768Z,62.03
2022-12-29T23:43:25.384Z,63.26
2022-12-29T23:45:52.147Z,62.56
2022-12-29T23:48:19.490Z,63.08
2022-12-29T23:50:46.224Z,62.67
2022-12-29T23:53:13.196Z,63.30
2022-12-29T23:55:44.145Z,63.33
2022-12-29T23:58:11.397Z,62.86
